Time;durP1;ratioP1;P1;durP2;ratioP2;P2;SDS_P1;SDS_P2;PMS_P1;PMS_P2;Temp;Humidity;BMP_temperature;BMP_pressure;BME280_temperature;BME280_humidity;BME280_pressure;Samples;Min_cycle;Max_cycle;Signal;HPM_P1;HPM_P2
2022/07/13 00:05:09;;;;;;;6.28;4.25;;;;;;;;;;21079394;28;20048;-65
2022/07/13 00:15:11;;;;;;;5.80;4.63;;;;;;;;;;21079825;28;20393;-67
2022/07/13 00:25:13;;;;;;;7.25;4.55;;;;;;;;;;21078315;28;20044;-66
2022/07/13 00:35:14;;;;;;;6.65;4.38;;;;;;;;;;21078138;28;20052;-65
2022/07/13 00:45:16;;;;;;;9.65;4.65;;;;;;;;;;21070433;28;20476;-65
2022/07/13 00:55:18;;;;;;;8.50;4.72;;;;;;;;;;21078275;28;20395;-66
2022/07/13 01:05:20;;;;;;;6.32;4.43;;;;;;;;;;21080745;28;20078;-67
2022/07/13 01:15:23;;;;;;;7.13;4.40;;;;;;;;;;21094502;28;20407;-66
2022/07/13 01:25:25;;;;;;;5.75;4.32;;;;;;;;;;21093915;28;20472;-66
2022/07/13 01:35:29;;;;;;;6.72;4.80;;;;;;;;;;21090787;28;20217;-67
2022/07/13 01:45:34;;;;;;;4.63;3.63;;;;;;;;;;21090096;28;20040;-66
2022/07/13 01:55:37;;;;;;;6.85;3.38;;;;;;;;;;21093623;28;20052;-67
2022/07/13 02:05:40;;;;;;;4.20;3.03;;;;;;;;;;21089504;28;20052;-66
2022/07/13 02:15:43;;;;;;;6.90;4.18;;;;;;;;;;21087203;28;20048;-66
2022/07/13 02:25:49;;;;;;;8.57;3.97;;;;;;;;;;21088038;28;20105;-62
2022/07/13 02:35:55;;;;;;;6.75;4.30;;;;;;;;;;21085649;28;20055;-64
2022/07/13 02:46:03;;;;;;;8.65;5.00;;;;;;;;;;21087386;28;20048;-65
2022/07/13 02:56:07;;;;;;;4.55;4.05;;;;;;;;;;21084770;28;20120;-66
2022/07/13 03:06:09;;;;;;;6.47;4.38;;;;;;;;;;21084155;28;20048;-65
2022/07/13 03:16:11;;;;;;;10.23;4.03;;;;;;;;;;21084462;28;20139;-68
2022/07/13 03:26:13;;;;;;;4.35;3.50;;;;;;;;;;21081488;28;20044;-66
2022/07/13 03:36:15;;;;;;;8.60;4.80;;;;;;;;;;21081059;28;20058;-65
2022/07/13 03:46:17;;;;;;;7.28;4.47;;;;;;;;;;21081557;28;20048;-65
2022/07/13 03:56:19;;;;;;;5.95;4.75;;;;;;;;;;21079867;28;20044;-67
2022/07/13 04:06:21;;;;;;;8.82;3.80;;;;;;;;;;21079019;28;20083;-66
2022/07/13 04:16:23;;;;;;;11.70;4.18;;;;;;;;;;21079816;28;20481;-65
2022/07/13 04:26:25;;;;;;;11.80;4.95;;;;;;;;;;21078200;28;20052;-65
2022/07/13 04:36:26;;;;;;;6.65;4.07;;;;;;;;;;21077982;28;20048;-66
2022/07/13 04:46:29;;;;;;;8.73;4.15;;;;;;;;;;21094364;28;20461;-66
2022/07/13 04:56:33;;;;;;;7.25;4.88;;;;;;;;;;21093830;28;20048;-66
2022/07/13 05:06:35;;;;;;;13.98;4.78;;;;;;;;;;21093131;28;20511;-66
2022/07/13 05:16:37;;;;;;;11.75;4.90;;;;;;;;;;21093470;28;20530;-63
2022/07/13 05:26:39;;;;;;;12.95;4.90;;;;;;;;;;21091848;28;20454;-65
2022/07/13 05:36:41;;;;;;;12.77;4.88;;;;;;;;;;21090818;28;20077;-64
2022/07/13 05:46:42;;;;;;;9.27;4.50;;;;;;;;;;21089972;28;20052;-66
2022/07/13 05:56:44;;;;;;;5.93;3.75;;;;;;;;;;21088347;28;20127;-66
2022/07/13 06:06:47;;;;;;;8.20;3.75;;;;;;;;;;21088919;28;20409;-65
2022/07/13 06:17:06;;;;;;;8.43;3.38;;;;;;;;;;21088077;28;20480;-67
2022/07/13 06:27:28;;;;;;;8.88;4.53;;;;;;;;;;21087710;28;20441;-68
2022/07/13 06:37:49;;;;;;;9.27;4.57;;;;;;;;;;21086512;28;20435;-65
2022/07/13 06:48:06;;;;;;;11.73;2.90;;;;;;;;;;21085102;28;20076;-67
2022/07/13 06:58:11;;;;;;;3.60;2.40;;;;;;;;;;21086604;28;20056;-67
2022/07/13 07:08:16;;;;;;;3.77;2.53;;;;;;;;;;21066596;28;20054;-66
2022/07/13 07:18:22;;;;;;;4.82;2.80;;;;;;;;;;21082779;28;20048;-64
2022/07/13 07:28:25;;;;;;;4.97;3.17;;;;;;;;;;21084862;28;20127;-69
2022/07/13 07:38:30;;;;;;;8.07;3.05;;;;;;;;;;21084365;28;20087;-66
2022/07/13 07:48:34;;;;;;;6.60;2.20;;;;;;;;;;21080976;28;20055;-69
2022/07/13 07:58:39;;;;;;;7.27;2.33;;;;;;;;;;21081947;28;20548;-68
2022/07/13 08:08:42;;;;;;;7.05;2.58;;;;;;;;;;21069111;28;20048;-63
2022/07/13 08:18:45;;;;;;;4.72;1.80;;;;;;;;;;21082292;28;20095;-69
2022/07/13 08:28:48;;;;;;;2.92;1.60;;;;;;;;;;21079461;28;20105;-69
2022/07/13 08:38:51;;;;;;;4.85;2.00;;;;;;;;;;21080377;28;20050;-66
2022/07/13 08:48:55;;;;;;;2.95;2.03;;;;;;;;;;21077292;28;20048;-63
2022/07/13 08:58:56;;;;;;;7.40;2.10;;;;;;;;;;21078144;28;20048;-56
2022/07/13 09:09:01;;;;;;;6.72;2.42;;;;;;;;;;21130750;28;20043;-68
2022/07/13 09:19:03;;;;;;;2.70;2.10;;;;;;;;;;21160750;28;20051;-67
2022/07/13 09:29:05;;;;;;;6.82;2.53;;;;;;;;;;21150708;28;20051;-66
2022/07/13 09:39:11;;;;;;;6.90;2.70;;;;;;;;;;21176484;28;20130;-67
2022/07/13 09:49:16;;;;;;;8.75;2.47;;;;;;;;;;21175036;28;20101;-67
2022/07/13 09:59:19;;;;;;;14.68;2.70;;;;;;;;;;21173444;28;20055;-66
2022/07/13 10:09:28;;;;;;;8.57;2.33;;;;;;;;;;21172978;28;20104;-67
2022/07/13 10:19:30;;;;;;;10.75;2.33;;;;;;;;;;21171262;28;20136;-65
2022/07/13 10:29:32;;;;;;;4.90;2.22;;;;;;;;;;21152442;28;20058;-67
2022/07/13 10:39:34;;;;;;;10.38;2.92;;;;;;;;;;21170169;28;20547;-65
2022/07/13 10:49:40;;;;;;;5.50;3.05;;;;;;;;;;21169782;28;20124;-71
2022/07/13 10:59:46;;;;;;;8.35;2.60;;;;;;;;;;21166538;28;20058;-62
2022/07/13 11:10:08;;;;;;;6.70;2.50;;;;;;;;;;21167079;28;20076;-60
2022/07/13 11:20:10;;;;;;;9.70;3.28;;;;;;;;;;21166539;28;20115;-64
2022/07/13 11:30:14;;;;;;;8.88;3.17;;;;;;;;;;21166588;28;20476;-60
2022/07/13 11:40:27;;;;;;;9.53;3.40;;;;;;;;;;21164473;28;20121;-72
2022/07/13 11:50:42;;;;;;;8.10;3.80;;;;;;;;;;21163834;28;20061;-66
2022/07/13 12:00:44;;;;;;;9.00;4.07;;;;;;;;;;21165334;28;20192;-64
2022/07/13 12:10:47;;;;;;;7.10;4.65;;;;;;;;;;21165094;28;20058;-65
2022/07/13 12:20:49;;;;;;;8.77;5.00;;;;;;;;;;21163284;28;20143;-68
2022/07/13 12:30:59;;;;;;;14.30;5.63;;;;;;;;;;21144394;28;20040;-65
2022/07/13 12:41:03;;;;;;;6.38;5.65;;;;;;;;;;21162552;28;20134;-64
2022/07/13 12:51:05;;;;;;;;;;;;;;;;;;21163432;28;20071;-64
2022/07/13 13:01:08;;;;;;;7.90;5.10;;;;;;;;;;21170263;28;20290;-66
2022/07/13 13:11:10;;;;;;;8.07;6.05;;;;;;;;;;21177332;28;20044;-66
2022/07/13 13:21:12;;;;;;;13.30;6.70;;;;;;;;;;21177454;28;20043;-66
2022/07/13 13:31:14;;;;;;;8.35;7.00;;;;;;;;;;21178112;28;20051;-66
2022/07/13 13:41:16;;;;;;;9.13;6.93;;;;;;;;;;21175729;28;20089;-66
2022/07/13 13:51:19;;;;;;;9.50;6.20;;;;;;;;;;21175801;28;20484;-65
2022/07/13 14:01:20;;;;;;;9.38;6.22;;;;;;;;;;21174753;28;20399;-66
2022/07/13 14:11:23;;;;;;;7.50;5.60;;;;;;;;;;21171384;28;20051;-65
2022/07/13 14:21:24;;;;;;;7.53;5.43;;;;;;;;;;21173220;28;20060;-66
2022/07/13 14:31:26;;;;;;;6.25;5.45;;;;;;;;;;21153369;28;20043;-66
2022/07/13 14:41:28;;;;;;;95.90;16.17;;;;;;;;;;21170394;28;20082;-65
2022/07/13 14:51:30;;;;;;;8.27;4.88;;;;;;;;;;21170164;27;20082;-66
2022/07/13 15:01:32;;;;;;;6.68;5.07;;;;;;;;;;21169384;28;20047;-65
2022/07/13 15:11:34;;;;;;;8.38;5.20;;;;;;;;;;21168448;28;20731;-66
2022/07/13 15:21:37;;;;;;;7.80;5.90;;;;;;;;;;21168725;28;20043;-67
2022/07/13 15:31:39;;;;;;;9.97;6.30;;;;;;;;;;21165715;28;20047;-65
2022/07/13 15:41:41;;;;;;;6.95;5.53;;;;;;;;;;21166021;28;20067;-66
2022/07/13 15:51:43;;;;;;;8.45;6.03;;;;;;;;;;21166412;28;20494;-66
2022/07/13 16:01:45;;;;;;;8.10;6.47;;;;;;;;;;21164692;28;20453;-65
2022/07/13 16:11:46;;;;;;;8.13;7.10;;;;;;;;;;21163906;28;20052;-65
2022/07/13 16:21:50;;;;;;;9.48;6.65;;;;;;;;;;21164126;28;20048;-63
2022/07/13 16:31:52;;;;;;;8.82;7.38;;;;;;;;;;21164376;28;20039;-62
2022/07/13 16:41:54;;;;;;;7.47;6.78;;;;;;;;;;21179898;28;20052;-64
2022/07/13 16:51:57;;;;;;;9.07;6.72;;;;;;;;;;21180394;28;20039;-64
2022/07/13 17:01:59;;;;;;;8.15;7.03;;;;;;;;;;21178448;28;20053;-64
2022/07/13 17:12:01;;;;;;;7.00;6.38;;;;;;;;;;21176263;28;20052;-63
2022/07/13 17:22:03;;;;;;;7.22;6.53;;;;;;;;;;21176404;28;20112;-64
2022/07/13 17:32:05;;;;;;;8.40;7.03;;;;;;;;;;21175717;28;20040;-64
2022/07/13 17:42:07;;;;;;;11.45;7.00;;;;;;;;;;21178208;28;20048;-63
2022/07/13 17:52:09;;;;;;;9.93;7.25;;;;;;;;;;21173944;28;20078;-63
2022/07/13 18:02:11;;;;;;;8.75;6.47;;;;;;;;;;21173302;28;20055;-64
2022/07/13 18:12:13;;;;;;;9.13;7.38;;;;;;;;;;21172284;28;20054;-65
2022/07/13 18:22:15;;;;;;;10.88;7.22;;;;;;;;;;21172188;28;20097;-63
2022/07/13 18:32:16;;;;;;;9.75;7.07;;;;;;;;;;21171373;28;20048;-63
2022/07/13 18:42:18;;;;;;;9.48;6.80;;;;;;;;;;21154071;28;20093;-62
2022/07/13 18:52:20;;;;;;;8.63;7.72;;;;;;;;;;21173201;28;20066;-63
2022/07/13 19:02:22;;;;;;;17.30;10.07;;;;;;;;;;21169412;28;20051;-62
2022/07/13 19:12:24;;;;;;;8.63;7.75;;;;;;;;;;21167583;28;20051;-63
2022/07/13 19:22:26;;;;;;;10.32;9.00;;;;;;;;;;21168295;28;20052;-63
2022/07/13 19:32:27;;;;;;;12.23;8.77;;;;;;;;;;21148490;28;20079;-63
2022/07/13 19:42:29;;;;;;;14.60;7.88;;;;;;;;;;21147876;28;20056;-62
2022/07/13 19:52:31;;;;;;;11.25;9.27;;;;;;;;;;21165525;28;20130;-63
2022/07/13 20:02:32;;;;;;;14.85;9.43;;;;;;;;;;21163794;28;20188;-62
2022/07/13 20:12:35;;;;;;;14.85;9.80;;;;;;;;;;21144499;28;20462;-65
2022/07/13 20:22:37;;;;;;;13.38;9.98;;;;;;;;;;21163529;28;20055;-64
2022/07/13 20:32:39;;;;;;;16.27;9.98;;;;;;;;;;21162859;28;20122;-64
2022/07/13 20:42:41;;;;;;;13.57;11.00;;;;;;;;;;21163436;28;20126;-63
2022/07/13 20:52:43;;;;;;;20.25;11.68;;;;;;;;;;21162880;28;20108;-66
2022/07/13 21:02:46;;;;;;;15.93;11.38;;;;;;;;;;21162736;28;20449;-65
2022/07/13 21:12:48;;;;;;;16.75;10.70;;;;;;;;;;21161439;28;20450;-65
2022/07/13 21:22:50;;;;;;;12.70;10.13;;;;;;;;;;21167682;28;20056;-63
2022/07/13 21:32:51;;;;;;;32.17;23.33;;;;;;;;;;21176876;28;20078;-63
2022/07/13 21:42:53;;;;;;;18.75;14.50;;;;;;;;;;21176239;28;20051;-62
2022/07/13 21:52:55;;;;;;;17.27;13.25;;;;;;;;;;21175675;28;20058;-63
2022/07/13 22:02:56;;;;;;;16.00;12.02;;;;;;;;;;21174467;28;20040;-63
2022/07/13 22:13:16;;;;;;;15.82;10.88;;;;;;;;;;21174179;28;20130;-63
2022/07/13 22:23:37;;;;;;;17.08;11.90;;;;;;;;;;21173163;28;20063;-63
2022/07/13 22:33:57;;;;;;;14.95;12.52;;;;;;;;;;21171917;28;20046;-63
2022/07/13 22:44:18;;;;;;;13.73;12.00;;;;;;;;;;21172236;28;20138;-66
2022/07/13 22:54:38;;;;;;;16.40;11.82;;;;;;;;;;21171352;28;20074;-64
2022/07/13 23:05:17;;;;;;;16.65;12.73;;;;;;;;;;21168606;28;20126;-66
2022/07/13 23:15:38;;;;;;;17.50;12.35;;;;;;;;;;21167788;28;20503;-64
2022/07/13 23:25:58;;;;;;;16.67;12.70;;;;;;;;;;21168460;28;20131;-62
2022/07/13 23:36:01;;;;;;;15.32;11.95;;;;;;;;;;21166345;28;20101;-64
2022/07/13 23:46:03;;;;;;;16.23;12.05;;;;;;;;;;21164852;28;20122;-64
2022/07/13 23:56:05;;;;;;;14.10;11.00;;;;;;;;;;21167355;28;20503;-66
